createdAt,value
2023-04-11T00:01:51.345Z,100.00
2023-04-11T00:04:21.077Z,100.00
2023-04-11T00:06:49.291Z,100.00
2023-04-11T00:09:17.874Z,100.00
2023-04-11T00:11:48.124Z,100.00
2023-04-11T00:14:17.734Z,100.00
2023-04-11T00:16:45.811Z,100.00
2023-04-11T00:19:15.404Z,100.00
2023-04-11T00:21:44.289Z,100.00
2023-04-11T00:24:12.255Z,100.00
2023-04-11T00:26:40.164Z,100.00
2023-04-11T00:29:09.526Z,100.00
2023-04-11T00:31:37.428Z,100.00
2023-04-11T00:34:05.782Z,100.00
2023-04-11T00:36:33.768Z,100.00
2023-04-11T00:39:02.406Z,100.00
2023-04-11T00:41:30.405Z,100.00
2023-04-11T00:43:58.794Z,100.00
2023-04-11T00:46:28.261Z,100.00
2023-04-11T00:48:56.512Z,100.00
2023-04-11T00:51:24.753Z,100.00
2023-04-11T00:53:52.785Z,100.00
2023-04-11T00:56:20.972Z,100.00
2023-04-11T00:58:49.378Z,100.00
2023-04-11T01:01:20.045Z,100.00
2023-04-11T01:03:49.579Z,100.00
2023-04-11T01:06:19.947Z,100.00
2023-04-11T01:08:48.892Z,100.00
2023-04-11T01:11:20.237Z,100.00
2023-04-11T01:13:48.834Z,100.00
2023-04-11T01:16:21.399Z,100.00
2023-04-11T01:18:51.135Z,100.00
2023-04-11T01:21:20.918Z,100.00
2023-04-11T01:23:52.935Z,100.00
2023-04-11T01:26:22.180Z,100.00
2023-04-11T01:28:50.117Z,100.00
2023-04-11T01:31:18.159Z,100.00
2023-04-11T01:33:46.177Z,100.00
2023-04-11T01:36:14.517Z,100.00
2023-04-11T01:38:42.886Z,100.00
2023-04-11T01:41:12.506Z,100.00
2023-04-11T01:43:41.109Z,100.00
2023-04-11T01:46:09.636Z,100.00
2023-04-11T01:48:38.664Z,100.00
2023-04-11T01:51:07.629Z,100.00
2023-04-11T01:53:35.744Z,100.00
2023-04-11T01:56:03.695Z,100.00
2023-04-11T01:58:33.017Z,100.00
2023-04-11T02:01:01.939Z,100.00
2023-04-11T02:03:30.224Z,100.00
2023-04-11T02:05:59.055Z,100.00
2023-04-11T02:08:27.033Z,100.00
2023-04-11T02:10:54.993Z,100.00
2023-04-11T02:13:23.350Z,100.00
2023-04-11T02:15:52.825Z,100.00
2023-04-11T02:18:21.068Z,100.00
2023-04-11T02:20:50.254Z,100.00
2023-04-11T02:23:18.291Z,100.00
2023-04-11T02:25:46.350Z,100.00
2023-04-11T02:28:14.337Z,100.00
2023-04-11T02:30:42.275Z,100.00
2023-04-11T02:33:12.060Z,100.00
2023-04-11T02:35:40.062Z,100.00
2023-04-11T02:38:08.092Z,100.00
2023-04-11T02:40:36.085Z,100.00
2023-04-11T02:43:04.099Z,100.00
2023-04-11T02:45:32.305Z,100.00
2023-04-11T02:48:00.437Z,100.00
2023-04-11T02:50:30.877Z,100.00
2023-04-11T02:52:58.846Z,100.00
2023-04-11T02:55:27.160Z,100.00
2023-04-11T02:57:55.142Z,100.00
2023-04-11T03:00:23.308Z,100.00
2023-04-11T03:02:51.272Z,100.00
2023-04-11T03:05:19.193Z,100.00
2023-04-11T03:07:48.554Z,100.00
2023-04-11T03:10:16.660Z,100.00
2023-04-11T03:12:44.599Z,100.00
2023-04-11T03:15:15.544Z,100.00
2023-04-11T03:17:43.718Z,100.00
2023-04-11T03:20:13.758Z,100.00
2023-04-11T03:22:41.752Z,100.00
2023-04-11T03:25:11.457Z,100.00
2023-04-11T03:27:39.486Z,100.00
2023-04-11T03:30:08.805Z,100.00
2023-04-11T03:32:36.838Z,100.00
2023-04-11T03:35:05.078Z,100.00
2023-04-11T03:37:33.048Z,100.00
2023-04-11T03:40:00.970Z,100.00
2023-04-11T03:42:30.254Z,100.00
2023-04-11T03:44:58.186Z,100.00
2023-04-11T03:47:26.292Z,100.00
2023-04-11T03:49:54.198Z,100.00
2023-04-11T03:52:22.168Z,100.00
2023-04-11T03:54:50.132Z,100.00
2023-04-11T03:57:18.109Z,100.00
2023-04-11T03:59:47.980Z,100.00
2023-04-11T04:02:16.822Z,100.00
2023-04-11T04:04:48.805Z,100.00
2023-04-11T04:07:18.241Z,100.00
2023-04-11T04:09:46.230Z,100.00
2023-04-11T04:12:14.169Z,100.00
2023-04-11T04:14:42.151Z,100.00
2023-04-11T04:17:11.659Z,100.00
2023-04-11T04:19:39.723Z,100.00
2023-04-11T04:22:11.742Z,100.00
2023-04-11T04:24:42.082Z,100.00
2023-04-11T04:27:10.544Z,100.00
2023-04-11T04:29:39.702Z,100.00
2023-04-11T04:32:11.272Z,100.00
2023-04-11T04:34:46.966Z,100.00
2023-04-11T04:37:21.944Z,100.00
2023-04-11T04:39:54.392Z,100.00
2023-04-11T04:42:24.007Z,100.00
2023-04-11T04:44:52.594Z,100.00
2023-04-11T04:47:21.140Z,100.00
2023-04-11T04:49:50.494Z,100.00
2023-04-11T04:52:18.513Z,100.00
2023-04-11T04:54:46.921Z,100.00
2023-04-11T04:57:14.889Z,100.00
2023-04-11T04:59:43.208Z,100.00
2023-04-11T05:02:11.435Z,100.00
2023-04-11T05:04:39.830Z,100.00
2023-04-11T05:07:09.357Z,100.00
2023-04-11T05:09:37.285Z,100.00
2023-04-11T05:12:07.112Z,100.00
2023-04-11T05:14:35.415Z,100.00
2023-04-11T05:17:03.525Z,100.00
2023-04-11T05:19:32.393Z,100.00
2023-04-11T05:22:00.858Z,100.00
2023-04-11T05:24:30.285Z,100.00
2023-04-11T05:26:58.354Z,100.00
2023-04-11T05:29:26.425Z,100.00
2023-04-11T05:31:54.425Z,100.00
2023-04-11T05:34:22.871Z,100.00
2023-04-11T05:36:51.103Z,100.00
2023-04-11T05:39:19.019Z,100.00
2023-04-11T05:41:48.795Z,100.00
2023-04-11T05:44:17.164Z,100.00
2023-04-11T05:46:45.165Z,100.00
2023-04-11T05:49:13.407Z,100.00
2023-04-11T05:51:41.457Z,100.00
2023-04-11T05:54:09.436Z,100.00
2023-04-11T05:56:39.803Z,100.00
2023-04-11T05:59:09.231Z,100.00
2023-04-11T06:01:40.107Z,100.00
2023-04-11T06:04:08.309Z,100.00
2023-04-11T06:06:36.593Z,100.00
2023-04-11T06:09:05.297Z,100.00
2023-04-11T06:11:33.258Z,100.00
2023-04-11T06:14:01.492Z,100.00
2023-04-11T06:16:32.742Z,100.00
2023-04-11T06:19:01.298Z,100.00
2023-04-11T06:21:29.306Z,100.00
2023-04-11T06:24:00.595Z,100.00
2023-04-11T06:26:28.646Z,100.00
2023-04-11T06:28:56.585Z,100.00
2023-04-11T06:31:24.869Z,100.00
2023-04-11T06:33:54.770Z,100.00
2023-04-11T06:36:23.196Z,100.00
2023-04-11T06:38:51.193Z,100.00
2023-04-11T06:41:19.323Z,100.00
2023-04-11T06:43:47.274Z,100.00
2023-04-11T06:46:15.290Z,100.00
2023-04-11T06:48:43.744Z,100.00
2023-04-11T06:51:13.257Z,100.00
2023-04-11T06:53:41.365Z,100.00
2023-04-11T06:56:10.616Z,100.00
2023-04-11T06:58:38.558Z,100.00
2023-04-11T07:01:07.264Z,100.00
2023-04-11T07:03:35.336Z,100.00
2023-04-11T07:06:03.532Z,100.00
2023-04-11T07:08:33.048Z,100.00
2023-04-11T07:11:01.150Z,100.00
2023-04-11T07:13:29.284Z,100.00
2023-04-11T07:15:57.351Z,100.00
2023-04-11T07:18:26.065Z,100.00
2023-04-11T07:20:54.003Z,100.00
2023-04-11T07:23:23.723Z,100.00
2023-04-11T07:25:54.547Z,100.00
2023-04-11T07:28:23.759Z,100.00
2023-04-11T07:30:51.692Z,100.00
2023-04-11T07:33:19.961Z,100.00
2023-04-11T07:35:48.067Z,100.00
2023-04-11T07:38:29.652Z,100.00
2023-04-11T07:41:01.154Z,98.61
2023-04-11T07:43:30.199Z,100.00
2023-04-11T07:46:00.919Z,100.00
2023-04-11T07:48:29.431Z,100.00
2023-04-11T07:50:57.475Z,97.56
2023-04-11T07:53:26.875Z,97.25
2023-04-11T07:55:57.347Z,98.28
2023-04-11T07:58:26.767Z,98.56
2023-04-11T08:00:58.381Z,94.84
2023-04-11T08:03:27.331Z,91.00
2023-04-11T08:05:56.224Z,87.00
2023-04-11T08:08:24.406Z,86.32
2023-04-11T08:10:52.522Z,84.64
2023-04-11T08:13:20.535Z,85.31
2023-04-11T08:15:49.865Z,86.22
2023-04-11T08:18:21.585Z,87.09
2023-04-11T08:20:49.692Z,88.27
2023-04-11T08:23:20.336Z,91.31
2023-04-11T08:25:48.749Z,91.32
2023-04-11T08:28:18.661Z,88.34
2023-04-11T08:30:46.773Z,86.97
2023-04-11T08:33:16.435Z,86.31
2023-04-11T08:35:44.505Z,86.55
2023-04-11T08:38:12.621Z,83.21
2023-04-11T08:40:40.629Z,80.54
2023-04-11T08:43:12.373Z,79.87
2023-04-11T08:45:43.315Z,78.57
2023-04-11T08:48:12.676Z,73.94
2023-04-11T08:50:42.771Z,75.12
2023-04-11T08:53:10.965Z,76.81
2023-04-11T08:55:46.332Z,75.05
2023-04-11T08:58:14.655Z,74.00
2023-04-11T09:00:42.732Z,71.34
2023-04-11T09:03:12.575Z,69.71
2023-04-11T09:05:44.696Z,68.04
2023-04-11T09:08:14.420Z,69.06
2023-04-11T09:10:45.769Z,69.59
2023-04-11T09:13:23.662Z,69.38
2023-04-11T09:16:06.169Z,69.35
2023-04-11T09:18:35.337Z,69.28
2023-04-11T09:21:07.035Z,70.20
2023-04-11T09:23:35.517Z,70.76
2023-04-11T09:26:06.298Z,69.85
2023-04-11T09:28:43.057Z,69.13
2023-04-11T09:31:13.576Z,70.46
2023-04-11T09:33:53.943Z,71.59
2023-04-11T09:36:25.442Z,72.74
2023-04-11T09:38:56.811Z,73.34
2023-04-11T09:41:32.455Z,74.59
2023-04-11T09:44:03.912Z,76.21
2023-04-11T09:46:32.079Z,76.60
2023-04-11T09:49:03.263Z,75.47
2023-04-11T09:51:36.916Z,76.36
2023-04-11T09:54:06.482Z,76.58
2023-04-11T09:56:35.544Z,75.49
2023-04-11T09:59:05.176Z,75.10
2023-04-11T10:01:33.608Z,74.21
2023-04-11T10:04:02.278Z,74.46
2023-04-11T10:06:35.061Z,73.89
2023-04-11T10:09:08.486Z,72.11
2023-04-11T10:11:36.988Z,71.49
2023-04-11T10:14:05.184Z,71.53
2023-04-11T10:16:34.512Z,70.60
2023-04-11T10:19:25.294Z,70.44
2023-04-11T10:21:54.752Z,66.44
2023-04-11T10:24:22.973Z,66.72
2023-04-11T10:26:52.774Z,66.43
2023-04-11T10:29:51.390Z,67.74
2023-04-11T10:32:25.986Z,66.99
2023-04-11T10:35:22.894Z,62.24
2023-04-11T10:37:52.633Z,62.34
2023-04-11T10:40:21.724Z,57.56
2023-04-11T10:42:50.171Z,55.57
2023-04-11T10:45:24.496Z,54.50
2023-04-11T10:48:11.693Z,54.22
2023-04-11T10:50:44.568Z,52.45
2023-04-11T10:53:36.712Z,51.52
2023-04-11T10:56:05.009Z,50.47
2023-04-11T10:58:37.989Z,50.75
2023-04-11T11:01:31.178Z,51.25
2023-04-11T11:04:06.298Z,50.26
2023-04-11T11:06:46.036Z,49.57
2023-04-11T11:09:27.001Z,48.51
2023-04-11T11:12:07.920Z,49.46
2023-04-11T11:14:36.348Z,51.80
2023-04-11T11:17:04.719Z,53.88
2023-04-11T11:19:33.418Z,55.88
2023-04-11T11:22:04.089Z,57.64
2023-04-11T11:24:33.666Z,58.37
2023-04-11T11:27:01.671Z,57.84
2023-04-11T11:29:32.878Z,58.23
2023-04-11T11:32:03.527Z,58.19
2023-04-11T11:34:33.238Z,54.41
2023-04-11T11:37:04.889Z,51.79
2023-04-11T11:39:35.650Z,50.67
2023-04-11T11:42:06.121Z,50.94
2023-04-11T11:44:34.495Z,50.00
2023-04-11T11:47:03.930Z,51.90
2023-04-11T11:49:45.839Z,53.81
2023-04-11T11:52:14.190Z,54.53
2023-04-11T11:54:47.992Z,55.53
2023-04-11T11:57:23.375Z,52.24
2023-04-11T11:59:55.066Z,50.84
2023-04-11T12:02:25.589Z,51.85
2023-04-11T12:05:00.245Z,52.46
2023-04-11T12:07:32.692Z,53.99
2023-04-11T12:10:02.470Z,53.96
2023-04-11T12:12:36.335Z,54.29
2023-04-11T12:15:04.992Z,53.05
2023-04-11T12:17:37.847Z,52.69
2023-04-11T12:22:54.663Z,50.24
2023-04-11T12:25:25.877Z,50.18
2023-04-11T12:27:54.049Z,50.66
2023-04-11T12:30:22.098Z,50.82
2023-04-11T12:32:50.293Z,52.22
2023-04-11T12:35:18.385Z,52.71
2023-04-11T12:37:46.704Z,52.80
2023-04-11T12:40:17.778Z,53.52
2023-04-11T12:42:56.885Z,52.18
2023-04-11T12:45:26.153Z,52.57
2023-04-11T12:47:54.662Z,51.15
2023-04-11T12:50:24.525Z,51.27
2023-04-11T12:55:39.856Z,52.31
2023-04-11T12:58:09.475Z,51.02
2023-04-11T13:00:37.419Z,50.83
2023-04-11T13:03:06.146Z,50.76
2023-04-11T13:05:34.352Z,50.48
2023-04-11T13:08:02.654Z,50.39
2023-04-11T13:10:30.609Z,50.62
2023-04-11T13:13:05.433Z,50.89
2023-04-11T13:15:41.606Z,50.21
2023-04-11T13:18:09.576Z,49.88
2023-04-11T13:20:37.762Z,50.43
2023-04-11T13:23:05.783Z,50.39
2023-04-11T13:25:33.755Z,50.41
2023-04-11T13:28:02.515Z,50.69
2023-04-11T13:30:30.579Z,51.30
2023-04-11T13:33:00.080Z,51.81
2023-04-11T13:35:28.161Z,52.19
2023-04-11T13:37:56.218Z,52.27
2023-04-11T13:40:24.205Z,53.07
2023-04-11T13:42:54.622Z,52.80
2023-04-11T13:45:22.818Z,52.38
2023-04-11T13:47:51.033Z,52.44
2023-04-11T13:50:20.353Z,53.03
2023-04-11T13:52:48.399Z,52.63
2023-04-11T13:55:16.450Z,53.34
2023-04-11T13:57:44.605Z,52.97
2023-04-11T14:00:13.502Z,53.37
2023-04-11T14:02:42.399Z,53.04
2023-04-11T14:05:12.031Z,53.79
2023-04-11T14:07:41.518Z,53.34
2023-04-11T14:10:10.686Z,53.96
2023-04-11T14:12:39.235Z,54.52
2023-04-11T14:15:09.057Z,55.01
2023-04-11T14:17:37.167Z,55.01
2023-04-11T14:20:06.972Z,54.67
2023-04-11T14:22:35.283Z,54.78
2023-04-11T14:25:05.560Z,54.71
2023-04-11T14:27:33.666Z,54.57
2023-04-11T14:30:01.891Z,54.85
2023-04-11T14:32:30.136Z,54.21
2023-04-11T14:34:59.112Z,54.90
2023-04-11T14:37:28.114Z,54.72
2023-04-11T14:39:56.030Z,55.51
2023-04-11T14:42:25.589Z,55.40
2023-04-11T14:44:53.762Z,55.36
2023-04-11T14:47:23.009Z,55.77
2023-04-11T14:49:50.934Z,56.32
2023-04-11T14:52:19.185Z,55.92
2023-04-11T14:54:47.353Z,56.92
2023-04-11T14:57:15.708Z,56.86
2023-04-11T14:59:45.434Z,57.37
2023-04-11T15:02:13.669Z,57.39
2023-04-11T15:04:41.805Z,58.06
2023-04-11T15:07:10.129Z,57.85
2023-04-11T15:09:38.091Z,58.45
2023-04-11T15:12:06.882Z,57.88
2023-04-11T15:14:34.897Z,58.36
2023-04-11T15:17:04.335Z,57.89
2023-04-11T15:19:32.280Z,57.97
2023-04-11T15:22:00.312Z,57.75
2023-04-11T15:24:28.485Z,58.25
2023-04-11T15:26:56.768Z,58.42
2023-04-11T15:29:25.263Z,58.88
2023-04-11T15:31:53.368Z,59.21
2023-04-11T15:34:23.666Z,58.86
2023-04-11T15:36:51.693Z,59.25
2023-04-11T15:39:19.961Z,59.03
2023-04-11T15:41:48.577Z,59.59
2023-04-11T15:44:16.629Z,59.69
2023-04-11T15:46:46.944Z,59.23
2023-04-11T15:49:16.850Z,60.04
2023-04-11T15:51:47.634Z,60.02
2023-04-11T15:54:15.879Z,60.78
2023-04-11T15:56:43.873Z,61.02
2023-04-11T15:59:13.146Z,61.03
2023-04-11T16:01:41.605Z,61.59
2023-04-11T16:04:11.450Z,61.20
2023-04-11T16:06:39.626Z,61.51
2023-04-11T16:09:10.742Z,61.92
2023-04-11T16:11:40.143Z,61.74
2023-04-11T16:14:08.175Z,61.28
2023-04-11T16:16:36.259Z,61.88
2023-04-11T16:19:04.305Z,61.83
2023-04-11T16:21:32.946Z,62.58
2023-04-11T16:24:01.244Z,62.78
2023-04-11T16:26:30.999Z,62.97
2023-04-11T16:28:59.075Z,63.08
2023-04-11T16:31:27.397Z,63.41
2023-04-11T16:33:56.270Z,63.06
2023-04-11T16:36:24.911Z,63.52
2023-04-11T16:38:52.925Z,63.53
2023-04-11T16:41:20.960Z,63.93
2023-04-11T16:43:51.261Z,64.41
2023-04-11T16:46:19.423Z,64.00
2023-04-11T16:48:47.922Z,64.07
2023-04-11T16:51:18.418Z,64.35
2023-04-11T16:53:47.501Z,64.70
2023-04-11T16:56:15.522Z,64.53
2023-04-11T16:58:43.573Z,64.96
2023-04-11T17:01:13.908Z,65.11
2023-04-11T17:03:43.384Z,65.40
2023-04-11T17:06:14.867Z,65.74
2023-04-11T17:08:43.595Z,65.78
2023-04-11T17:11:12.256Z,66.64
2023-04-11T17:13:40.838Z,66.92
2023-04-11T17:16:10.913Z,66.83
2023-04-11T17:18:41.122Z,67.32
2023-04-11T17:21:09.359Z,67.44
2023-04-11T17:23:43.118Z,67.92
2023-04-11T17:26:12.176Z,68.39
2023-04-11T17:28:40.868Z,68.17
2023-04-11T17:31:15.855Z,69.06
2023-04-11T17:33:47.937Z,69.57
2023-04-11T17:36:16.353Z,70.00
2023-04-11T17:38:45.393Z,70.22
2023-04-11T17:41:15.446Z,71.17
2023-04-11T17:43:44.033Z,71.50
2023-04-11T17:46:12.570Z,71.74
2023-04-11T17:48:40.699Z,72.68
2023-04-11T17:51:10.252Z,72.79
2023-04-11T17:53:38.303Z,73.27
2023-04-11T17:56:08.116Z,73.68
2023-04-11T17:58:37.360Z,74.22
2023-04-11T18:01:11.055Z,74.66
2023-04-11T18:03:40.352Z,75.07
2023-04-11T18:06:10.916Z,75.43
2023-04-11T18:08:50.288Z,75.38
2023-04-11T18:11:19.504Z,75.32
2023-04-11T18:13:53.794Z,75.66
2023-04-11T18:16:22.511Z,75.80
2023-04-11T18:18:51.681Z,76.23
2023-04-11T18:21:21.566Z,76.40
2023-04-11T18:23:49.967Z,76.79
2023-04-11T18:26:18.335Z,77.25
2023-04-11T18:28:46.350Z,77.82
2023-04-11T18:31:15.588Z,78.45
2023-04-11T18:33:45.911Z,78.81
2023-04-11T18:36:15.595Z,79.48
2023-04-11T18:38:45.185Z,79.95
2023-04-11T18:41:13.372Z,80.46
2023-04-11T18:43:42.212Z,81.44
2023-04-11T18:46:10.797Z,81.54
2023-04-11T18:48:39.401Z,81.83
2023-04-11T18:51:07.987Z,82.35
2023-04-11T18:53:36.844Z,82.42
2023-04-11T18:56:07.479Z,83.18
2023-04-11T18:58:40.000Z,83.36
2023-04-11T19:01:15.586Z,83.70
2023-04-11T19:03:46.256Z,84.20
2023-04-11T19:06:18.349Z,84.80
2023-04-11T19:08:48.561Z,85.08
2023-04-11T19:11:34.035Z,85.37
2023-04-11T19:16:48.433Z,86.72
2023-04-11T19:19:16.716Z,87.21
2023-04-11T19:21:44.607Z,87.44
2023-04-11T19:24:12.573Z,87.45
2023-04-11T19:26:42.128Z,88.21
2023-04-11T19:29:10.170Z,88.57
2023-04-11T19:31:46.717Z,88.85
2023-04-11T19:34:15.371Z,89.50
2023-04-11T19:36:44.880Z,89.72
2023-04-11T19:39:13.156Z,90.35
2023-04-11T19:41:45.660Z,90.85
2023-04-11T19:44:13.904Z,90.83
2023-04-11T19:46:42.271Z,91.35
2023-04-11T19:49:12.505Z,91.71
2023-04-11T19:51:40.736Z,91.94
2023-04-11T19:54:08.768Z,92.32
2023-04-11T19:56:39.763Z,92.58
2023-04-11T19:59:09.183Z,92.95
2023-04-11T20:01:37.217Z,93.24
2023-04-11T20:04:15.979Z,93.40
2023-04-11T20:06:45.096Z,94.12
2023-04-11T20:09:13.070Z,94.23
2023-04-11T20:11:43.142Z,94.00
2023-04-11T20:14:14.990Z,94.17
2023-04-11T20:16:43.153Z,94.21
2023-04-11T20:19:11.552Z,94.38
2023-04-11T20:21:44.905Z,94.71
2023-04-11T20:24:12.964Z,94.74
2023-04-11T20:26:41.220Z,94.08
2023-04-11T20:29:09.183Z,93.73
2023-04-11T20:31:38.473Z,94.06
2023-04-11T20:34:06.345Z,94.29
2023-04-11T20:36:36.061Z,94.30
2023-04-11T20:39:04.626Z,94.38
2023-04-11T20:41:32.773Z,93.94
2023-04-11T20:44:00.909Z,94.46
2023-04-11T20:46:29.856Z,94.39
2023-04-11T20:48:59.479Z,94.30
2023-04-11T20:51:27.537Z,94.42
2023-04-11T20:53:55.856Z,94.03
2023-04-11T20:56:24.041Z,94.46
2023-04-11T20:58:51.995Z,95.44
2023-04-11T21:01:20.009Z,96.06
2023-04-11T21:03:48.348Z,95.18
2023-04-11T21:06:17.741Z,94.00
2023-04-11T21:08:45.945Z,94.95
2023-04-11T21:11:13.974Z,95.26
2023-04-11T21:13:41.952Z,95.10
2023-04-11T21:16:11.136Z,95.42
2023-04-11T21:18:39.161Z,95.40
2023-04-11T21:21:07.455Z,95.31
2023-04-11T21:23:37.869Z,96.15
2023-04-11T21:26:06.120Z,96.33
2023-04-11T21:28:34.186Z,96.85
2023-04-11T21:31:02.272Z,96.54
2023-04-11T21:33:30.308Z,96.94
2023-04-11T21:35:58.423Z,96.70
2023-04-11T21:38:26.440Z,96.69
2023-04-11T21:40:57.960Z,96.98
2023-04-11T21:43:26.007Z,98.08
2023-04-11T21:45:54.100Z,97.77
2023-04-11T21:48:22.230Z,98.04
2023-04-11T21:50:50.278Z,98.36
2023-04-11T21:53:18.434Z,98.18
2023-04-11T21:55:47.324Z,98.21
2023-04-11T21:58:28.582Z,98.24
2023-04-11T22:00:57.357Z,98.53
2023-04-11T22:03:26.855Z,98.71
2023-04-11T22:05:55.036Z,99.53
2023-04-11T22:08:23.301Z,99.67
2023-04-11T22:10:52.566Z,100.00
2023-04-11T22:13:22.031Z,100.00
2023-04-11T22:15:58.325Z,100.00
2023-04-11T22:18:27.212Z,100.00
2023-04-11T22:20:55.360Z,100.00
2023-04-11T22:23:25.031Z,100.00
2023-04-11T22:25:57.708Z,100.00
2023-04-11T22:28:27.179Z,100.00
2023-04-11T22:30:57.681Z,100.00
2023-04-11T22:33:25.746Z,100.00
2023-04-11T22:35:54.594Z,100.00
2023-04-11T22:38:22.563Z,100.00
2023-04-11T22:40:50.462Z,100.00
2023-04-11T22:43:18.552Z,100.00
2023-04-11T22:45:47.932Z,100.00
2023-04-11T22:48:16.332Z,100.00
2023-04-11T22:50:49.551Z,100.00
2023-04-11T22:53:18.182Z,100.00
2023-04-11T22:55:46.211Z,100.00
2023-04-11T22:58:14.178Z,100.00
2023-04-11T23:00:43.793Z,100.00
2023-04-11T23:03:14.105Z,100.00
2023-04-11T23:05:43.360Z,100.00
2023-04-11T23:08:11.616Z,100.00
2023-04-11T23:10:39.741Z,100.00
2023-04-11T23:13:08.635Z,100.00
2023-04-11T23:15:37.486Z,100.00
2023-04-11T23:18:05.582Z,100.00
2023-04-11T23:20:37.060Z,100.00
2023-04-11T23:23:05.769Z,100.00
2023-04-11T23:25:34.849Z,100.00
2023-04-11T23:28:02.834Z,100.00
2023-04-11T23:30:30.859Z,100.00
2023-04-11T23:32:59.708Z,100.00
2023-04-11T23:35:28.044Z,100.00
2023-04-11T23:37:57.675Z,100.00
2023-04-11T23:40:25.940Z,100.00
2023-04-11T23:42:53.964Z,100.00
2023-04-11T23:45:22.673Z,100.00
2023-04-11T23:47:51.032Z,100.00
2023-04-11T23:50:19.379Z,100.00
2023-04-11T23:52:47.654Z,100.00
2023-04-11T23:55:16.927Z,100.00
2023-04-11T23:57:44.912Z,100.00
